You are not logged in, Click here to log in
ICAO: RJGG Country: 日本中部地區愛知縣名古屋市以南的常滑市、伊勢灣上的一個人工島上
Latitude: 34.8591 Longitude: 136.815
Total Arrivals: 27 Total Departures: 30
Latest Arrival: GK694 (RJFK-RJGG)Jason. Li Latest Departure: CI155 (RJGG-RCTP)CHU. CHUHAO
Scenery:
METAR : RJGG 232000Z 28003KT 250V310 9000 VCSH FEW010 SCT040 BKN140 24/22 Q1009 NOSIG

中部国際空港NGO